Time;durP1;ratioP1;P1;durP2;ratioP2;P2;SDS_P1;SDS_P2;PMS_P1;PMS_P2;Temp;Humidity;BMP_temperature;BMP_pressure;BME280_temperature;BME280_humidity;BME280_pressure;Samples;Min_cycle;Max_cycle;Signal;HPM_P1;HPM_P2
2022/05/13 00:00:26;;;;;;;3.45;3.02;;;;;;;22.24;45.38;100894.16;1705046;82;21580;-73
2022/05/13 00:02:52;;;;;;;3.90;3.05;;;;;;;22.24;45.36;100891.38;1705342;82;21125;-73
2022/05/13 00:05:18;;;;;;;3.17;2.87;;;;;;;22.24;45.36;100894.97;1684896;84;22144;-73
2022/05/13 00:07:44;;;;;;;3.75;3.02;;;;;;;22.23;45.35;100894.75;1704938;83;21429;-74
2022/05/13 00:10:10;;;;;;;3.75;3.10;;;;;;;22.24;45.35;100895.54;1688458;82;21110;-72
2022/05/13 00:12:40;;;;;;;3.72;3.30;;;;;;;22.24;45.34;100891.38;1685274;82;21035;-73
2022/05/13 00:15:18;;;;;;;3.65;2.80;;;;;;;22.23;45.35;100900.86;1673729;84;21557;-74
2022/05/13 00:17:46;;;;;;;3.72;2.95;;;;;;;22.23;45.35;100900.30;1685311;84;21140;-72
2022/05/13 00:20:13;;;;;;;4.85;3.27;;;;;;;22.23;45.33;100902.25;1685063;84;21050;-72
2022/05/13 00:22:52;;;;;;;4.45;3.47;;;;;;;22.22;45.34;100900.05;1685288;83;21042;-73
2022/05/13 00:25:22;;;;;;;4.05;3.40;;;;;;;22.23;45.35;100900.86;1685105;83;21071;-73
2022/05/13 00:27:48;;;;;;;3.70;3.10;;;;;;;22.23;45.32;100902.25;1685503;83;21090;-73
2022/05/13 00:30:15;;;;;;;5.60;3.20;;;;;;;22.22;45.31;100902.00;1685289;83;21577;-73
2022/05/13 00:32:41;;;;;;;3.47;2.92;;;;;;;22.22;45.31;100906.16;1685096;83;21035;-72
2022/05/13 00:35:08;;;;;;;6.58;3.08;;;;;;;22.22;45.30;100905.59;1685298;84;21097;-71
2022/05/13 00:37:34;;;;;;;4.20;3.12;;;;;;;22.21;45.30;100902.56;1685291;83;21090;-72
2022/05/13 00:40:02;;;;;;;3.90;3.20;;;;;;;22.22;45.30;100900.05;1685110;83;21031;-71
2022/05/13 00:42:28;;;;;;;4.87;3.30;;;;;;;22.22;45.30;100895.07;1685349;83;21377;-72
2022/05/13 00:44:57;;;;;;;3.62;3.08;;;;;;;22.22;45.30;100895.07;1696505;83;21115;-72
2022/05/13 00:47:23;;;;;;;4.70;3.12;;;;;;;22.21;45.31;100892.86;1685078;83;21067;-73
2022/05/13 00:49:49;;;;;;;4.08;3.42;;;;;;;22.22;45.29;100893.69;1707584;82;21045;-71
2022/05/13 00:52:15;;;;;;;3.40;3.05;;;;;;;22.22;45.29;100889.53;1714316;82;21100;-72
2022/05/13 00:54:42;;;;;;;4.37;3.12;;;;;;;22.21;45.29;100892.86;1713470;82;21476;-76
2022/05/13 00:57:11;;;;;;;3.92;3.15;;;;;;;22.21;45.28;100888.70;1719136;82;21028;-73
2022/05/13 00:59:40;;;;;;;4.75;2.87;;;;;;;22.21;45.27;100883.16;1719388;82;21118;-71
2022/05/13 01:02:08;;;;;;;4.12;3.17;;;;;;;22.21;45.27;100887.89;1719072;83;21011;-73
2022/05/13 01:04:35;;;;;;;3.20;2.87;;;;;;;22.21;45.24;100885.12;1719074;81;21055;-72
2022/05/13 01:07:06;;;;;;;4.95;3.60;;;;;;;22.21;45.25;100886.50;1719294;81;21291;-72
2022/05/13 01:09:35;;;;;;;3.98;2.90;;;;;;;22.20;45.24;100873.78;1719307;81;21071;-73
2022/05/13 01:12:07;;;;;;;4.72;3.12;;;;;;;22.21;45.25;100887.89;1719506;83;21043;-73
2022/05/13 01:14:44;;;;;;;4.42;2.90;;;;;;;22.21;45.23;100882.34;1719426;81;21024;-73
2022/05/13 01:20:17;;;;;;;4.05;2.98;;;;;;;22.20;45.23;100881.53;1719056;82;21341;-73
2022/05/13 01:22:51;;;;;;;3.40;3.10;;;;;;;22.20;45.22;100884.87;1719395;81;21127;-72
2022/05/13 01:25:24;;;;;;;4.17;3.10;;;;;;;22.19;45.19;100886.81;1719230;81;21052;-74
2022/05/13 01:27:51;;;;;;;3.50;3.20;;;;;;;22.19;45.19;100887.42;1711230;82;21028;-72
2022/05/13 01:30:22;;;;;;;4.42;3.37;;;;;;;22.18;45.19;100886.59;1719303;81;21100;-73
2022/05/13 01:32:48;;;;;;;4.90;3.42;;;;;;;22.18;45.19;100888.55;1718938;82;21120;-72
2022/05/13 01:35:15;;;;;;;3.90;3.00;;;;;;;22.18;45.19;100882.44;1718891;81;21748;-73
2022/05/13 01:37:41;;;;;;;3.47;2.85;;;;;;;22.19;45.18;100881.88;1719201;81;21012;-71
2022/05/13 01:40:08;;;;;;;4.75;3.05;;;;;;;22.19;45.19;100887.42;1719080;83;21072;-72
2022/05/13 01:42:35;;;;;;;4.33;2.95;;;;;;;22.18;45.19;100890.75;1718756;83;21111;-73
2022/05/13 01:45:07;;;;;;;3.90;3.00;;;;;;;22.19;45.18;100891.58;1719066;81;22726;-73
2022/05/13 01:47:34;;;;;;;4.05;2.85;;;;;;;22.19;45.18;100891.58;1718917;82;21701;-73
2022/05/13 01:50:01;;;;;;;3.72;3.25;;;;;;;22.18;45.18;100882.44;1745492;81;21068;-73
2022/05/13 01:52:27;;;;;;;4.53;3.27;;;;;;;22.19;45.19;100881.27;1728279;81;21518;-72
2022/05/13 01:54:53;;;;;;;3.75;3.12;;;;;;;22.18;45.17;100882.44;1733596;82;21241;-73
2022/05/13 01:57:19;;;;;;;4.22;3.27;;;;;;;22.20;45.19;100877.94;1708380;84;21766;-73
2022/05/13 01:59:46;;;;;;;4.60;3.15;;;;;;;22.18;45.16;100872.74;1708775;83;21121;-72
2022/05/13 02:02:12;;;;;;;4.33;3.20;;;;;;;22.18;45.17;100874.13;1708908;83;21082;-71
2022/05/13 02:04:38;;;;;;;4.50;3.02;;;;;;;22.18;45.15;100875.52;1708510;83;21141;-74
2022/05/13 02:07:04;;;;;;;3.30;2.70;;;;;;;22.18;45.16;100871.36;1708668;83;21560;-72
2022/05/13 02:09:31;;;;;;;4.40;3.35;;;;;;;22.19;45.15;100871.58;1708819;83;21894;-73
2022/05/13 02:11:57;;;;;;;5.10;2.95;;;;;;;22.19;45.12;100873.56;1708356;84;21050;-74
2022/05/13 02:14:23;;;;;;;5.15;3.27;;;;;;;22.18;45.15;100874.70;1708885;82;21073;-73
2022/05/13 02:16:49;;;;;;;4.22;3.22;;;;;;;22.19;45.15;100872.96;1708650;83;21106;-73
2022/05/13 02:19:17;;;;;;;5.15;3.02;;;;;;;22.17;45.13;100870.28;1708593;84;21065;-73
2022/05/13 02:21:43;;;;;;;4.15;3.10;;;;;;;22.18;45.13;100869.16;1708713;83;21079;-72
2022/05/13 02:24:09;;;;;;;6.05;3.25;;;;;;;22.18;45.12;100871.92;1708353;83;21078;-72
2022/05/13 02:26:36;;;;;;;4.22;3.12;;;;;;;22.17;45.11;100868.33;1708613;84;21085;-72
2022/05/13 02:29:02;;;;;;;4.12;2.90;;;;;;;22.18;45.11;100870.54;1708840;83;21561;-73
2022/05/13 02:31:30;;;;;;;4.12;3.02;;;;;;;22.18;45.12;100871.36;1708880;83;21522;-73
2022/05/13 02:33:58;;;;;;;3.52;3.00;;;;;;;22.16;45.11;100870.85;1708704;83;21572;-72
2022/05/13 02:36:25;;;;;;;4.20;3.20;;;;;;;22.17;45.11;100874.44;1708728;83;21101;-72
2022/05/13 02:38:51;;;;;;;4.00;3.27;;;;;;;22.17;45.10;100872.48;1709204;82;21161;-72
2022/05/13 02:41:17;;;;;;;5.47;3.22;;;;;;;22.16;45.10;100865.31;1738759;82;21032;-73
2022/05/13 02:43:50;;;;;;;4.15;3.00;;;;;;;22.17;45.10;100866.12;1690270;83;21040;-72
2022/05/13 02:46:23;;;;;;;3.45;3.12;;;;;;;22.17;45.07;100858.63;1708390;83;21598;-72
2022/05/13 02:48:49;;;;;;;4.85;3.15;;;;;;;22.17;45.09;100863.36;1739191;81;21036;-72
2022/05/13 02:51:15;;;;;;;3.77;3.08;;;;;;;22.16;45.07;100867.27;1707696;84;21041;-71
2022/05/13 02:53:42;;;;;;;5.30;3.30;;;;;;;22.15;45.06;100866.45;1707837;82;21034;-72
2022/05/13 02:56:08;;;;;;;3.50;3.12;;;;;;;22.16;45.06;100865.88;1683812;84;21045;-73
2022/05/13 02:58:36;;;;;;;3.62;2.90;;;;;;;22.16;45.06;100868.65;1673472;85;21131;-73
2022/05/13 03:01:02;;;;;;;5.10;3.00;;;;;;;22.16;45.06;100870.03;1654423;85;21100;-71
2022/05/13 03:03:30;;;;;;;3.45;3.12;;;;;;;22.16;45.04;100875.01;1673206;85;22073;-72
2022/05/13 03:05:57;;;;;;;4.40;3.20;;;;;;;22.16;45.03;100871.42;1654335;85;21097;-73
2022/05/13 03:08:24;;;;;;;3.83;3.00;;;;;;;22.15;45.04;100870.60;1654563;85;21104;-73
2022/05/13 03:10:50;;;;;;;3.22;2.92;;;;;;;22.16;45.03;100867.27;1673138;85;21220;-72
2022/05/13 03:13:18;;;;;;;5.40;3.25;;;;;;;22.15;45.01;100865.66;1673559;85;21564;-71
2022/05/13 03:15:44;;;;;;;3.22;2.90;;;;;;;22.15;45.01;100871.98;1673127;84;21629;-72
2022/05/13 03:18:10;;;;;;;3.50;2.85;;;;;;;22.16;45.01;100876.96;1673216;85;21001;-73
2022/05/13 03:20:37;;;;;;;4.37;3.22;;;;;;;22.15;45.01;100880.90;1673459;85;21028;-73
2022/05/13 03:23:03;;;;;;;4.28;3.10;;;;;;;22.15;44.98;100888.61;1673510;85;22018;-72
2022/05/13 03:25:30;;;;;;;4.40;2.95;;;;;;;22.16;44.98;100888.05;1673098;85;21017;-71
2022/05/13 03:27:56;;;;;;;3.25;2.87;;;;;;;22.15;44.96;100884.45;1673341;85;21112;-73
2022/05/13 03:30:24;;;;;;;4.35;3.10;;;;;;;22.16;44.96;100889.44;1677008;85;21556;-72
2022/05/13 03:32:51;;;;;;;4.12;3.30;;;;;;;22.15;44.96;100895.54;1673171;85;21076;-72
2022/05/13 03:35:18;;;;;;;6.08;3.40;;;;;;;22.16;44.96;100902.72;1652982;85;21946;-73
2022/05/13 03:37:44;;;;;;;3.60;2.90;;;;;;;22.16;44.96;100906.06;1673506;85;21076;-74
2022/05/13 03:40:11;;;;;;;3.85;3.20;;;;;;;22.16;44.94;100910.22;1654384;85;21602;-73
2022/05/13 03:42:38;;;;;;;3.62;3.33;;;;;;;22.16;44.94;100907.44;1673344;85;21491;-73
2022/05/13 03:45:05;;;;;;;3.67;3.20;;;;;;;22.16;44.92;100901.34;1673473;85;21064;-73
2022/05/13 03:47:32;;;;;;;5.67;3.40;;;;;;;22.17;44.90;100909.08;1673129;85;22222;-71
2022/05/13 03:49:58;;;;;;;3.20;2.60;;;;;;;22.14;44.90;100903.63;1692637;82;21005;-71
2022/05/13 03:52:25;;;;;;;4.35;2.90;;;;;;;22.16;44.91;100906.06;1718474;82;21634;-72
2022/05/13 03:54:51;;;;;;;3.90;3.33;;;;;;;22.16;44.92;100906.06;1720815;81;21096;-72
2022/05/13 03:57:17;;;;;;;4.65;3.40;;;;;;;22.16;44.91;100912.98;1733889;82;21014;-73
2022/05/13 03:59:44;;;;;;;3.47;2.87;;;;;;;22.16;44.89;100904.67;1734029;82;22125;-74
2022/05/13 04:02:10;;;;;;;3.30;2.80;;;;;;;22.17;44.84;100913.23;1733448;82;21070;-72
2022/05/13 04:10:06;;;;;;;5.55;3.47;;;;;;;22.16;44.84;100921.30;1717994;83;21031;-72
2022/05/13 04:18:03;;;;;;;7.37;3.45;;;;;;;22.13;44.84;100928.89;1717908;82;21072;-74
2022/05/13 04:20:30;;;;;;;5.97;3.72;;;;;;;22.10;44.81;100925.39;1729008;81;21034;-73
2022/05/13 04:22:56;;;;;;;6.25;4.25;;;;;;;22.08;44.75;100929.86;1730045;82;21043;-72
2022/05/13 04:25:23;;;;;;;7.55;3.90;;;;;;;22.06;44.74;100925.23;1705354;82;21388;-73
2022/05/13 04:27:49;;;;;;;7.03;3.90;;;;;;;22.06;44.69;100923.84;1717861;82;21023;-74
2022/05/13 04:30:21;;;;;;;6.45;3.70;;;;;;;22.06;44.68;100931.34;1720917;82;21127;-74
2022/05/13 04:32:48;;;;;;;6.42;3.80;;;;;;;22.06;44.65;100929.38;1714742;82;21048;-73
2022/05/13 04:35:14;;;;;;;9.35;4.17;;;;;;;22.06;44.65;100927.18;1746894;82;21572;-74
2022/05/13 04:37:40;;;;;;;13.60;3.92;;;;;;;22.05;44.57;100926.36;1747174;80;22139;-73
2022/05/13 04:40:07;;;;;;;9.18;4.12;;;;;;;22.03;44.58;100925.86;1744814;80;21093;-72
2022/05/13 04:42:52;;;;;;;16.40;3.95;;;;;;;22.02;44.50;100929.79;1745906;81;22730;-76
2022/05/13 04:45:27;;;;;;;8.93;4.87;;;;;;;22.02;44.45;100927.02;1710437;80;21106;-73
2022/05/13 04:50:40;;;;;;;11.78;3.58;;;;;;;22.02;44.34;100923.42;1724456;81;21554;-75
2022/05/13 04:53:07;;;;;;;8.00;3.77;;;;;;;22.01;44.27;100928.72;1724020;82;21072;-72
2022/05/13 04:55:40;;;;;;;8.83;3.80;;;;;;;21.99;44.18;100929.03;1733093;81;22204;-78
2022/05/13 04:58:07;;;;;;;11.05;4.45;;;;;;;21.99;44.13;100935.13;1738173;80;21080;-77
2022/05/13 05:00:33;;;;;;;12.07;4.45;;;;;;;21.99;44.06;100937.91;1759385;79;21020;-73
2022/05/13 05:03:01;;;;;;;14.43;3.87;;;;;;;22.00;44.05;100928.46;1739530;80;21278;-79
2022/05/13 05:05:33;;;;;;;13.70;4.03;;;;;;;22.00;44.01;100934.82;1751723;79;21617;-76
2022/05/13 05:07:59;;;;;;;17.35;5.10;;;;;;;22.02;44.08;100938.09;1756726;79;21483;-80
2022/05/13 05:10:26;;;;;;;25.85;4.85;;;;;;;22.04;44.08;100941.34;1732100;81;21381;-77
2022/05/13 05:12:54;;;;;;;18.87;3.80;;;;;;;22.03;44.00;100942.48;1745960;80;21063;-78
2022/05/13 05:15:20;;;;;;;17.98;4.15;;;;;;;22.03;44.02;100943.86;1741156;80;22273;-79
2022/05/13 05:17:47;;;;;;;20.50;5.55;;;;;;;22.03;43.99;100945.25;1747711;80;21715;-77
2022/05/13 05:20:20;;;;;;;14.00;4.50;;;;;;;22.04;43.97;100943.30;1738000;80;21088;-76
2022/05/13 05:22:47;;;;;;;12.30;4.37;;;;;;;22.05;43.93;100942.98;1721738;80;21582;-76
2022/05/13 05:25:14;;;;;;;13.18;4.95;;;;;;;22.05;43.97;100943.55;1720717;81;21633;-79
2022/05/13 05:27:41;;;;;;;14.43;4.45;;;;;;;22.06;43.97;100946.01;1717667;82;21574;-74
2022/05/13 05:30:09;;;;;;;6.80;3.90;;;;;;;22.07;43.97;100950.39;1719908;82;21081;-72
2022/05/13 05:32:37;;;;;;;8.10;4.08;;;;;;;22.08;43.96;100949.25;1725957;81;21170;-78
2022/05/13 05:35:06;;;;;;;9.35;4.47;;;;;;;22.09;43.99;100949.51;1727639;81;21535;-76
2022/05/13 05:37:33;;;;;;;10.45;5.62;;;;;;;22.10;43.98;100948.94;1733811;81;21056;-76
2022/05/13 05:40:07;;;;;;;11.78;6.00;;;;;;;22.11;43.98;100956.09;1713924;82;21110;-74
2022/05/13 05:42:33;;;;;;;14.38;6.00;;;;;;;22.12;43.98;100951.63;1715612;82;21040;-82
2022/05/13 05:45:00;;;;;;;14.15;6.03;;;;;;;22.12;43.94;100953.57;1717939;82;21010;-83
2022/05/13 05:47:33;;;;;;;17.60;7.20;;;;;;;22.12;43.91;100949.41;1727514;81;21194;-77
2022/05/13 05:49:59;;;;;;;21.15;7.80;;;;;;;22.12;43.87;100953.01;1721831;81;21148;-79
2022/05/13 05:52:26;;;;;;;21.90;6.78;;;;;;;22.13;43.96;100953.83;1741100;81;20977;-75
2022/05/13 05:57:37;;;;;;;22.15;6.42;;;;;;;22.13;44.18;100944.95;1739005;80;21071;-76
2022/05/13 06:00:06;;;;;;;32.98;7.08;;;;;;;22.15;44.24;100940.48;1708125;81;128503;-84
2022/05/13 06:02:33;;;;;;;35.45;6.28;;;;;;;22.16;44.35;100947.62;1706572;82;21550;-86
2022/05/13 06:04:59;;;;;;;22.75;5.90;;;;;;;22.16;44.42;100942.08;1730688;82;21453;-89
2022/05/13 06:07:26;;;;;;;29.80;6.40;;;;;;;22.18;44.52;100945.36;1713419;83;21618;-88
2022/05/13 06:09:53;;;;;;;16.62;5.90;;;;;;;22.18;44.54;100942.02;1715339;82;21096;-88
2022/05/13 06:12:20;;;;;;;18.62;6.00;;;;;;;22.20;44.53;100936.95;1712056;82;21084;-88
2022/05/13 06:14:46;;;;;;;16.23;5.90;;;;;;;22.21;44.53;100938.59;1734254;80;21228;-91
2022/05/13 06:17:12;;;;;;;13.05;4.97;;;;;;;22.22;44.55;100944.39;1731605;80;21619;-88
2022/05/13 06:19:39;;;;;;;17.42;5.08;;;;;;;22.23;44.52;100941.05;1711133;82;21022;-89
2022/05/13 06:22:05;;;;;;;9.75;4.80;;;;;;;22.24;44.52;100935.73;1693136;82;21057;-90
2022/05/13 06:24:32;;;;;;;13.85;5.35;;;;;;;22.25;44.51;100934.03;1724558;82;21044;-88
2022/05/13 06:26:58;;;;;;;12.53;5.33;;;;;;;22.26;44.51;100936.23;1718392;83;21080;-90
2022/05/13 06:29:25;;;;;;;13.18;4.50;;;;;;;22.25;44.38;100935.41;1709070;82;21720;-92
2022/05/13 06:31:53;;;;;;;12.55;5.33;;;;;;;22.27;44.28;100932.33;1705138;82;21173;-90
2022/05/13 06:34:19;;;;;;;13.25;5.12;;;;;;;22.27;44.17;100930.94;1751697;80;21083;-89
2022/05/13 06:36:46;;;;;;;14.03;6.05;;;;;;;22.27;44.22;100933.71;1741536;80;21102;-91
2022/05/13 06:39:16;;;;;;;12.68;5.53;;;;;;;22.28;44.16;100938.09;1698678;82;21096;-89
2022/05/13 06:41:42;;;;;;;10.20;5.25;;;;;;;;;;1700314;82;21970;-88
2022/05/13 06:44:12;;;;;;;15.53;6.05;;;;;;;22.29;43.98;100944.70;1720566;81;21412;-88
2022/05/13 06:46:39;;;;;;;16.37;8.65;;;;;;;22.30;43.98;100941.37;1719505;82;21965;-86
2022/05/13 06:49:07;;;;;;;10.13;6.03;;;;;;;22.32;43.92;100944.61;1722574;81;21559;-84
2022/05/13 06:51:34;;;;;;;18.70;7.75;;;;;;;22.33;44.02;100949.02;1698667;83;21053;-90
2022/05/13 06:54:16;;;;;;;;;;;;;;;;;;;;;
2022/05/13 06:57:06;;;;;;;28.60;7.05;;;;;;;22.35;44.14;100947.32;1714631;82;22208;-88
2022/05/13 06:59:32;;;;;;;20.00;6.40;;;;;;;22.37;44.33;100945.84;1713355;82;20962;-84
2022/05/13 07:01:59;;;;;;;21.90;6.90;;;;;;;22.39;44.48;100947.73;1677269;84;21086;-86
2022/05/13 07:04:37;;;;;;;35.43;7.10;;;;;;;22.41;44.61;100945.43;1674099;83;21076;-87
2022/05/13 07:07:07;;;;;;;26.85;6.65;;;;;;;22.43;44.73;100954.82;1673396;85;21125;-89
2022/05/13 07:10:01;;;;;;;17.40;5.72;;;;;;;22.45;44.73;100945.63;1671636;84;21126;-90
2022/05/13 07:12:32;;;;;;;15.48;5.47;;;;;;;22.45;44.58;100949.18;1651919;85;21484;-90
2022/05/13 07:14:59;;;;;;;12.95;5.45;;;;;;;22.45;44.53;100953.94;1677205;83;21716;-87
2022/05/13 07:17:25;;;;;;;13.10;5.90;;;;;;;22.46;44.44;100949.44;1681645;83;21080;-89
2022/05/13 07:19:52;;;;;;;21.42;6.50;;;;;;;22.47;44.37;100958.57;1675295;83;21234;-90
2022/05/13 07:22:18;;;;;;;24.85;7.00;;;;;;;22.48;44.25;100957.44;1673052;84;21087;-89
2022/05/13 07:24:45;;;;;;;25.15;8.63;;;;;;;22.48;44.20;100959.64;1672197;83;21140;-89
2022/05/13 07:27:12;;;;;;;15.63;7.00;;;;;;;22.48;44.24;100952.70;1657608;84;21089;-89
2022/05/13 07:29:41;;;;;;;21.75;7.22;;;;;;;22.49;44.18;100954.91;1672794;84;21094;-92
2022/05/13 07:32:08;;;;;;;24.75;8.15;;;;;;;22.50;44.16;100950.97;1673602;84;21299;-91
2022/05/13 07:34:35;;;;;;;15.10;7.83;;;;;;;22.50;44.12;100950.97;1669844;83;21145;-91
2022/05/13 07:37:01;;;;;;;16.40;8.53;;;;;;;22.51;43.98;100948.45;1680666;83;21500;-89
2022/05/13 07:42:16;;;;;;;16.90;7.37;;;;;;;22.52;43.94;100932.89;1676348;84;21071;-86
2022/05/13 07:44:43;;;;;;;17.50;7.83;;;;;;;22.53;43.96;100931.72;1672757;83;21611;-87
2022/05/13 07:47:11;;;;;;;18.77;5.95;;;;;;;22.55;44.23;100938.34;1674666;83;21067;-83
2022/05/13 07:49:39;;;;;;;27.62;6.60;;;;;;;22.57;44.19;100936.89;1660986;84;21916;-84
2022/05/13 07:52:06;;;;;;;18.15;5.75;;;;;;;22.60;44.36;100941.77;1677291;83;21107;-88
2022/05/13 07:54:32;;;;;;;27.13;7.45;;;;;;;22.62;44.56;100935.88;1664487;83;131905;-84
2022/05/13 07:56:59;;;;;;;16.57;5.90;;;;;;;22.66;44.76;100938.27;1638065;84;22143;-77
2022/05/13 07:59:26;;;;;;;19.17;6.15;;;;;;;22.66;44.90;100937.66;1665794;82;21061;-76
2022/05/13 08:01:54;;;;;;;21.48;6.95;;;;;;;22.70;45.00;100934.51;1661764;85;21178;-76
2022/05/13 08:04:20;;;;;;;31.95;7.00;;;;;;;22.73;45.15;100934.44;1663621;85;21073;-81
2022/05/13 08:06:46;;;;;;;25.10;8.23;;;;;;;22.74;45.34;100936.86;1664740;83;21100;-77
2022/05/13 08:09:13;;;;;;;18.85;6.45;;;;;;;22.76;45.38;100935.98;1669761;83;24054;-77
2022/05/13 08:11:39;;;;;;;23.07;7.28;;;;;;;22.76;45.17;100930.43;1674178;83;20995;-78
2022/05/13 08:14:06;;;;;;;26.65;15.08;;;;;;;22.79;45.11;100930.94;1667971;83;21072;-78
2022/05/13 08:16:33;;;;;;;29.25;15.83;;;;;;;22.81;45.13;100931.41;1667174;83;21093;-75
2022/05/13 08:19:02;;;;;;;24.82;14.58;;;;;;;22.84;44.98;100923.23;1654329;84;21108;-75
2022/05/13 08:21:28;;;;;;;28.50;16.12;;;;;;;22.85;44.81;100930.41;1666773;83;21053;-76
2022/05/13 08:23:54;;;;;;;25.48;16.30;;;;;;;22.85;44.74;100926.25;1656803;85;21069;-76
2022/05/13 08:26:21;;;;;;;29.20;16.10;;;;;;;22.86;44.73;100936.78;1653421;85;21102;-75
2022/05/13 08:28:47;;;;;;;33.02;18.73;;;;;;;22.88;44.64;100926.97;1663539;83;21088;-76
2022/05/13 08:31:14;;;;;;;28.38;17.37;;;;;;;22.88;44.55;100926.97;1686713;79;21141;-76
2022/05/13 08:33:41;;;;;;;26.55;16.15;;;;;;;22.88;44.52;100927.54;1702167;82;21204;-75
2022/05/13 08:36:08;;;;;;;26.60;16.32;;;;;;;22.87;44.45;100924.55;1712872;80;21155;-75
2022/05/13 08:38:40;;;;;;;31.73;17.80;;;;;;;22.86;44.42;100927.89;1682601;82;32849;-76
2022/05/13 08:41:18;;;;;;;28.60;15.65;;;;;;;22.86;44.42;100925.12;1707362;82;21094;-75
2022/05/13 08:43:54;;;;;;;25.23;16.02;;;;;;;22.86;44.26;100925.69;1693382;82;21681;-77
2022/05/13 08:46:34;;;;;;;23.80;12.55;;;;;;;22.86;44.23;100920.14;1693491;82;21277;-76
2022/05/13 08:49:41;;;;;;;34.33;11.48;;;;;;;22.84;44.33;100921.84;1682822;83;21066;-75
2022/05/13 08:55:30;;;;;;;18.87;6.97;;;;;;;22.89;44.62;100916.70;1660950;82;22174;-80
2022/05/13 08:57:58;;;;;;;23.35;6.72;;;;;;;22.91;44.82;100912.46;1692791;81;21188;-80
2022/05/13 09:00:41;;;;;;;21.50;6.35;;;;;;;22.92;44.86;100909.91;1680240;83;21276;-79
2022/05/13 09:03:28;;;;;;;22.50;4.70;;;;;;;22.96;44.90;100910.05;1650101;85;21671;-80
2022/05/13 09:09:36;;;;;;;11.45;4.17;;;;;;;22.99;45.25;100907.45;1723140;80;21565;-89
2022/05/13 09:12:50;;;;;;;;;;;;;;;;;;;;;
2022/05/13 09:15:17;;;;;;;8.18;3.17;;;;;;;23.04;45.15;100900.31;1708109;80;21052;-90
2022/05/13 09:18:05;;;;;;;10.58;3.90;;;;;;;23.04;45.08;100894.77;1722426;80;22829;-90
2022/05/13 09:20:49;;;;;;;10.30;4.47;;;;;;;23.05;45.07;100894.20;1749904;80;21068;-90
2022/05/13 09:27:10;;;;;;;8.50;5.00;;;;;;;23.03;44.87;100894.55;1628379;86;21125;-90
2022/05/13 09:29:44;;;;;;;10.25;5.30;;;;;;;23.02;44.94;100892.09;1668185;82;21104;-90
2022/05/13 09:32:25;;;;;;;9.20;4.40;;;;;;;23.00;44.98;100900.73;1716941;82;21217;-90
2022/05/13 09:35:31;;;;;;;10.60;5.87;;;;;;;22.99;45.03;100888.60;1708587;81;21467;-89
2022/05/13 09:37:55;;;;;;;6.83;3.70;;;;;;;22.99;45.13;100883.88;1756371;79;20998;-89
2022/05/13 09:40:51;;;;;;;;;;;;;;;;;;;;;
2022/05/13 09:43:10;;;;;;;7.45;3.60;;;;;;;22.98;45.19;100888.35;1720653;81;21244;-91
2022/05/13 09:45:55;;;;;;;;;;;;;;;;;;;;;
2022/05/13 09:48:18;;;;;;;7.95;3.80;;;;;;;22.96;45.15;100876.19;1691993;82;21582;-82
2022/05/13 09:50:55;;;;;;;17.02;3.20;;;;;;;22.96;45.17;100871.21;1750054;80;21045;-89
2022/05/13 09:53:32;;;;;;;16.67;3.33;;;;;;;22.97;44.99;100873.66;1752270;79;21092;-88
2022/05/13 09:56:01;;;;;;;11.63;3.30;;;;;;;23.01;44.83;100869.08;1754005;79;21005;-89
2022/05/13 09:59:04;;;;;;;11.10;3.20;;;;;;;23.04;44.95;100871.18;1754540;78;21049;-90
2022/05/13 10:01:28;;;;;;;11.15;3.42;;;;;;;23.09;44.83;100866.02;1743185;79;21045;-87
2022/05/13 10:04:08;;;;;;;16.35;3.60;;;;;;;23.12;44.57;100862.03;1703976;82;21126;-86
2022/05/13 10:15:39;;;;;;;13.40;3.02;;;;;;;23.17;43.91;100843.78;1752616;78;20898;-93
2022/05/13 10:18:37;;;;;;;11.05;3.58;;;;;;;23.18;43.88;100847.37;1721911;82;20945;-91
2022/05/13 10:21:19;;;;;;;6.25;3.83;;;;;;;23.16;43.86;100842.74;1715987;81;21498;-89
2022/05/13 10:24:01;;;;;;;7.10;3.17;;;;;;;23.15;43.72;100843.89;1778090;78;21015;-90
2022/05/13 10:26:39;;;;;;;9.68;3.35;;;;;;;23.13;43.69;100844.20;1757848;78;20953;-89
2022/05/13 10:29:36;;;;;;;8.05;3.40;;;;;;;23.12;43.65;100837.63;1761376;79;20987;-89
2022/05/13 10:32:18;;;;;;;6.08;2.70;;;;;;;23.09;43.78;100825.21;1770507;78;20901;-89
2022/05/13 10:35:04;;;;;;;7.72;2.87;;;;;;;23.08;43.92;100820.02;1763276;78;21044;-86
2022/05/13 10:37:51;;;;;;;5.95;3.10;;;;;;;23.07;44.04;100821.97;1789966;78;21530;-90
2022/05/13 10:40:19;;;;;;;8.08;3.15;;;;;;;23.07;44.10;100818.38;1775607;78;20945;-89
2022/05/13 10:43:06;;;;;;;8.65;3.10;;;;;;;23.05;44.14;100809.56;1742770;81;21170;-89
2022/05/13 10:45:33;;;;;;;7.37;3.50;;;;;;;23.03;44.25;100807.70;1749284;79;22208;-82
2022/05/13 10:48:28;;;;;;;6.03;3.45;;;;;;;23.03;44.25;100804.36;1749090;78;21049;-84
2022/05/13 10:51:17;;;;;;;7.10;3.10;;;;;;;23.04;44.29;100805.18;1766088;79;21311;-86
2022/05/13 10:54:10;;;;;;;10.15;3.40;;;;;;;23.03;44.39;100795.22;1767911;78;20980;-84
2022/05/13 10:57:00;;;;;;;15.28;3.27;;;;;;;23.05;44.52;100794.30;1771045;78;21189;-87
2022/05/13 10:59:32;;;;;;;19.23;3.92;;;;;;;23.07;44.73;100790.63;1706621;81;21120;-91
2022/05/13 11:02:13;;;;;;;20.88;3.62;;;;;;;23.11;44.75;100793.79;1755154;79;21102;-88
2022/05/13 11:05:17;;;;;;;15.70;3.45;;;;;;;23.18;44.51;100782.97;1765063;79;21222;-89
2022/05/13 11:08:22;;;;;;;16.25;3.72;;;;;;;23.25;44.45;100788.58;1737598;79;21045;-87
2022/05/13 11:11:31;;;;;;;8.53;3.08;;;;;;;23.25;44.68;100783.02;1758764;78;21087;-88
2022/05/13 11:14:26;;;;;;;15.03;3.30;;;;;;;23.27;44.72;100771.81;1720307;81;21101;-88
2022/05/13 11:17:39;;;;;;;11.25;3.50;;;;;;;23.29;44.62;100768.14;1716227;80;21061;-91
2022/05/13 11:20:29;;;;;;;13.93;3.37;;;;;;;23.27;44.57;100759.31;1724012;80;21220;-90
2022/05/13 11:25:54;;;;;;;12.43;3.58;;;;;;;23.28;44.58;100762.34;1765432;80;21412;-88
2022/05/13 11:26:28;;;;;;;11.83;3.00;;;;;;;23.26;44.47;100753.52;1750997;79;21112;-89
2022/05/13 11:29:22;;;;;;;10.23;3.15;;;;;;;23.25;44.50;100749.71;1752382;78;21471;-89
2022/05/13 11:36:36;;;;;;;8.50;2.90;;;;;;;23.22;44.62;100746.45;1725021;82;21126;-89
2022/05/13 11:40:06;;;;;;;7.58;3.22;;;;;;;23.21;44.66;100735.70;1669792;84;21135;-88
2022/05/13 11:46:33;;;;;;;9.68;2.75;;;;;;;23.16;44.82;100728.95;1554757;90;21136;-89
2022/05/13 11:49:17;;;;;;;8.20;2.92;;;;;;;23.16;44.93;100726.17;1547914;91;21143;-88
2022/05/13 11:51:44;;;;;;;;;;;;;;;23.13;44.88;100718.50;1595501;89;21105;-89
2022/05/13 11:54:18;;;;;;;10.72;2.70;;;;;;;23.15;45.00;100713.44;1616380;87;20347;-88
2022/05/13 11:56:52;;;;;;;12.70;3.35;;;;;;;23.18;45.00;100709.41;1670332;82;21094;-89
2022/05/13 11:59:33;;;;;;;17.30;3.35;;;;;;;23.22;45.09;100708.97;1688349;82;21083;-89
2022/05/13 12:02:53;;;;;;;17.15;3.42;;;;;;;23.30;44.84;100705.89;1692051;82;21058;-91
2022/05/13 12:05:24;;;;;;;13.45;3.10;;;;;;;23.37;44.56;100702.59;1693733;83;21202;-85
2022/05/13 12:08:07;;;;;;;11.85;3.05;;;;;;;23.46;44.17;100701.98;1702348;82;21570;-89
2022/05/13 12:10:50;;;;;;;11.80;3.30;;;;;;;23.48;44.04;100696.31;1694299;83;21124;-89
2022/05/13 12:13:49;;;;;;;7.30;3.22;;;;;;;23.48;44.01;100696.31;1681308;83;21133;-88
2022/05/13 12:16:56;;;;;;;18.02;3.42;;;;;;;23.48;44.13;100690.75;1670366;83;21111;-87
2022/05/13 12:19:36;;;;;;;11.73;2.90;;;;;;;23.48;44.09;100683.00;1678137;84;21315;-88
2022/05/13 12:22:37;;;;;;;11.70;3.27;;;;;;;23.45;44.04;100673.97;1669825;84;21098;-88
2022/05/13 12:28:32;;;;;;;12.45;3.60;;;;;;;23.38;44.09;100678.63;1560015;90;21134;-89
2022/05/13 12:31:21;;;;;;;9.43;2.83;;;;;;;23.35;44.24;100670.17;1545541;92;21135;-88
2022/05/13 12:37:33;;;;;;;9.18;3.15;;;;;;;23.32;44.32;100661.96;1504072;91;21620;-88
2022/05/13 12:39:21;;;;;;;;;;;;;;;23.29;44.53;100666.00;1757622;81;21126;-88
2022/05/13 12:42:24;;;;;;;;;;;;;;;;;;;;;
2022/05/13 12:44:59;;;;;;;13.38;3.27;;;;;;;23.23;44.61;100649.55;1733168;79;21053;-87
2022/05/13 12:47:29;;;;;;;10.75;3.30;;;;;;;23.24;44.62;100651.75;1777970;79;21522;-89
2022/05/13 12:50:21;;;;;;;8.93;3.30;;;;;;;23.25;44.62;100648.40;1753450;79;21076;-88